Time;durP1;ratioP1;P1;durP2;ratioP2;P2;SDS_P1;SDS_P2;PMS_P1;PMS_P2;Temp;Humidity;BMP_temperature;BMP_pressure;BME280_temperature;BME280_humidity;BME280_pressure;Samples;Min_cycle;Max_cycle;Signal;HPM_P1;HPM_P2
2022/07/16 00:03:07;;;;;;;;;;;;;;;;;;5013361;28;7054;-60
2022/07/16 00:05:38;;;;;;;;;;;;;;;;;;5014895;28;7033;-60
2022/07/16 00:08:05;;;;;;;;;;;;;;;;;;5014318;28;8287;-60
2022/07/16 00:10:30;;;;;;;;;;;;;;;;;;5014626;28;7057;-60
2022/07/16 00:12:56;;;;;;;;;;;;;;;;;;5018658;28;7392;-60
2022/07/16 00:15:22;;;;;;;;;;;;;;;;;;5018706;28;7360;-60
2022/07/16 00:19:15;;;;;;;;;;;;;;;;;;5018275;28;7059;-60
2022/07/16 00:20:37;;;;;;;;;;;;;;;;;;5018401;28;7332;-60
2022/07/16 00:23:03;;;;;;;;;;;;;;;;;;5018142;28;7032;-60
2022/07/16 00:31:35;;;;;;;;;;;;;;;;;;5018192;28;6690;-60
2022/07/16 00:34:04;;;;;;;;;;;;;;;;;;5018230;28;7262;-60
2022/07/16 00:39:32;;;;;;;;;;;;;;;;;;5017911;28;7051;-60
2022/07/16 00:48:11;;;;;;;;;;;;;;;;;;5018027;28;7127;-60
2022/07/16 00:50:38;;;;;;;;;;;;;;;;;;5017749;28;6986;-60
2022/07/16 00:53:05;;;;;;;;;;;;;;;;;;5017957;28;7232;-60
2022/07/16 00:55:30;;;;;;;;;;;;;;;;;;5017650;28;6951;-60
2022/07/16 01:00:59;;;;;;;;;;;;;;;;;;5017644;28;6698;-60
2022/07/16 01:03:25;;;;;;;;;;;;;;;;;;5017441;28;7200;-60
2022/07/16 01:06:27;;;;;;;;;;;;;;;;;;5017808;28;7362;-60
2022/07/16 01:08:53;;;;;;;;;;;;;;;;;;5017229;28;9008;-60
2022/07/16 01:20:45;;;;;;;;;;;;;;;;;;5017254;28;6940;-60
2022/07/16 01:23:17;;;;;;;;;;;;;;;;;;5016994;28;7334;-60
2022/07/16 01:25:43;;;;;;;;;;;;;;;;;;5017098;28;8178;-60
2022/07/16 01:31:06;;;;;;;;;;;;;;;;;;5017554;28;6945;-60
2022/07/16 01:33:33;;;;;;;;;;;;;;;;;;5017376;28;7199;-60
2022/07/16 01:45:07;;;;;;;;;;;;;;;;;;5016806;28;6928;-60
2022/07/16 01:47:33;;;;;;;;;;;;;;;;;;5017916;28;6956;-60
2022/07/16 01:50:35;;;;;;;;;;;;;;;;;;5016807;28;7114;-60
2022/07/16 01:53:00;;;;;;;;;;;;;;;;;;5016276;28;7179;-60
2022/07/16 01:55:45;;;;;;;;;;;;;;;;;;5016883;28;7044;-60
2022/07/16 01:58:11;;;;;;;;;;;;;;;;;;5016705;28;7912;-60
2022/07/16 02:00:38;;;;;;;;;;;;;;;;;;5017373;28;6975;-60
2022/07/16 02:03:04;;;;;;;;;;;;;;;;;;5014445;28;7090;-60
2022/07/16 02:08:24;;;;;;;;;;;;;;;;;;5017403;28;7004;-60
2022/07/16 02:10:49;;;;;;;;;;;;;;;;;;5016468;28;7259;-60
2022/07/16 02:13:15;;;;;;;;;;;;;;;;;;5016244;28;7177;-60
2022/07/16 02:15:41;;;;;;;;;;;;;;;;;;5016176;28;6982;-60
2022/07/16 02:18:07;;;;;;;;;;;;;;;;;;5016081;28;6963;-60
2022/07/16 02:20:33;;;;;;;;;;;;;;;;;;5016401;28;6986;-60
2022/07/16 02:22:59;;;;;;;;;;;;;;;;;;5017193;28;7113;-60
2022/07/16 02:25:44;;;;;;;;;;;;;;;;;;5016381;28;6934;-60
2022/07/16 02:28:10;;;;;;;;;;;;;;;;;;5016152;28;7177;-60
2022/07/16 02:30:40;;;;;;;;;;;;;;;;;;5016132;28;6935;-60
2022/07/16 02:36:08;;;;;;;;;;;;;;;;;;5015859;28;6965;-60
2022/07/16 02:38:58;;;;;;;;;;;;;;;;;;5016024;28;7197;-60
2022/07/16 02:41:24;;;;;;;;;;;;;;;;;;5016490;28;7352;-60
2022/07/16 02:43:57;;;;;;;;;;;;;;;;;;5015928;28;7015;-60
2022/07/16 02:46:22;;;;;;;;;;;;;;;;;;5015776;28;7067;-60
2022/07/16 02:51:51;;;;;;;;;;;;;;;;;;5015683;28;6765;-60
2022/07/16 02:57:06;;;;;;;;;;;;;;;;;;5016318;28;7133;-60
2022/07/16 02:59:33;;;;;;;;;;;;;;;;;;5015212;28;8238;-60
2022/07/16 03:02:00;;;;;;;;;;;;;;;;;;5013698;28;7233;-60
2022/07/16 03:04:41;;;;;;;;;;;;;;;;;;5015799;28;6955;-60
2022/07/16 03:07:07;;;;;;;;;;;;;;;;;;5015394;28;7179;-60
2022/07/16 03:13:03;;;;;;;;;;;;;;;;;;5015882;28;6789;-59
2022/07/16 03:15:29;;;;;;;;;;;;;;;;;;5015423;28;7478;-59
2022/07/16 03:17:55;;;;;;;;;;;;;;;;;;5015757;28;7164;-59
2022/07/16 03:20:40;;;;;;;;;;;;;;;;;;5015309;28;6948;-59
2022/07/16 03:23:06;;;;;;;;;;;;;;;;;;5015315;28;7432;-59
2022/07/16 03:25:33;;;;;;;;;;;;;;;;;;5014340;28;7136;-59
2022/07/16 03:27:59;;;;;;;;;;;;;;;;;;5015566;28;7403;-60
2022/07/16 03:30:24;;;;;;;;;;;;;;;;;;5015063;28;7236;-60
2022/07/16 03:32:50;;;;;;;;;;;;;;;;;;5015097;28;7151;-60
2022/07/16 03:40:35;;;;;;;;;;;;;;;;;;5033291;28;7073;-85
2022/07/16 03:43:00;;;;;;;;;;;;;;;;;;5032460;28;9395;-85
2022/07/16 03:45:26;;;;;;;;;;;;;;;;;;5032602;28;8367;-85
2022/07/16 03:47:51;;;;;;;;;;;;;;;;;;5032946;28;8413;-85
2022/07/16 03:50:18;;;;;;;;;;;;;;;;;;5032595;28;8541;-84
2022/07/16 03:52:44;;;;;;;;;;;;;;;;;;5032461;28;8481;-84
2022/07/16 03:55:13;;;;;;;;;;;;;;;;;;5031998;28;7128;-84
2022/07/16 03:57:39;;;;;;;;;;;;;;;;;;5032144;28;8354;-85
2022/07/16 04:00:05;;;;;;;;;;;;;;;;;;5032429;28;8466;-84
2022/07/16 04:02:31;;;;;;;;;;;;;;;;;;5033343;28;8389;-86
2022/07/16 04:04:56;;;;;;;;;;;;;;;;;;5032910;28;7138;-84
2022/07/16 04:07:22;;;;;;;;;;;;;;;;;;5033492;28;8496;-85
2022/07/16 04:09:47;;;;;;;;;;;;;;;;;;5032986;28;8672;-84
2022/07/16 04:12:13;;;;;;;;;;;;;;;;;;5033291;28;7118;-84
2022/07/16 04:14:39;;;;;;;;;;;;;;;;;;5033494;28;7032;-84
2022/07/16 04:17:04;;;;;;;;;;;;;;;;;;5033226;28;7173;-84
2022/07/16 04:19:30;;;;;;;;;;;;;;;;;;5033304;28;8786;-84
2022/07/16 04:21:55;;;;;;;;;;;;;;;;;;5033759;28;6996;-84
2022/07/16 04:24:20;;;;;;;;;;;;;;;;;;5033080;28;8451;-84
2022/07/16 04:26:46;;;;;;;;;;;;;;;;;;5033145;28;8403;-84
2022/07/16 04:29:13;;;;;;;;;;;;;;;;;;5033091;28;8335;-84
2022/07/16 04:31:38;;;;;;;;;;;;;;;;;;5033213;28;7433;-84
2022/07/16 04:34:04;;;;;;;;;;;;;;;;;;5033460;28;6989;-84
2022/07/16 04:36:29;;;;;;;;;;;;;;;;;;5032842;28;7949;-84
2022/07/16 04:38:55;;;;;;;;;;;;;;;;;;5033083;28;7329;-84
2022/07/16 04:41:20;;;;;;;;;;;;;;;;;;5032870;28;8737;-84
2022/07/16 04:43:46;;;;;;;;;;;;;;;;;;5033159;28;6807;-84
2022/07/16 04:46:11;;;;;;;;;;;;;;;;;;5033032;28;7028;-83
2022/07/16 04:48:37;;;;;;;;;;;;;;;;;;5033144;28;7041;-84
2022/07/16 04:51:02;;;;;;;;;;;;;;;;;;5032953;28;8502;-84
2022/07/16 04:53:28;;;;;;;;;;;;;;;;;;5033059;28;8329;-84
2022/07/16 04:55:53;;;;;;;;;;;;;;;;;;5033360;28;6999;-84
2022/07/16 04:58:19;;;;;;;;;;;;;;;;;;5035634;28;8396;-84
2022/07/16 05:00:44;;;;;;;;;;;;;;;;;;5036382;28;7083;-84
2022/07/16 05:03:10;;;;;;;;;;;;;;;;;;5036370;28;8320;-84
2022/07/16 05:05:37;;;;;;;;;;;;;;;;;;5053113;28;8710;-84
2022/07/16 05:08:04;;;;;;;;;;;;;;;;;;5036246;28;8421;-84
2022/07/16 05:10:30;;;;;;;;;;;;;;;;;;5036332;28;7145;-84
2022/07/16 05:12:55;;;;;;;;;;;;;;;;;;5019638;28;8375;-81
2022/07/16 05:15:22;;;;;;;;;;;;;;;;;;5031742;28;7067;-83
2022/07/16 05:17:47;;;;;;;;;;;;;;;;;;5033204;28;7264;-79
2022/07/16 05:20:13;;;;;;;;;;;;;;;;;;5034914;28;8600;-84
2022/07/16 05:22:39;;;;;;;;;;;;;;;;;;5051079;28;7162;-81
2022/07/16 05:25:06;;;;;;;;;;;;;;;;;;5035682;28;8309;-82
2022/07/16 05:27:32;;;;;;;;;;;;;;;;;;5010745;28;7046;-85
2022/07/16 05:29:58;;;;;;;;;;;;;;;;;;5036528;28;8060;-86
2022/07/16 05:32:24;;;;;;;;;;;;;;;;;;5048817;28;7032;-82
2022/07/16 05:34:50;;;;;;;;;;;;;;;;;;5032436;28;7012;-86
2022/07/16 05:37:16;;;;;;;;;;;;;;;;;;5041017;28;8296;-84
2022/07/16 05:39:41;;;;;;;;;;;;;;;;;;5047663;28;7181;-85
2022/07/16 05:42:07;;;;;;;;;;;;;;;;;;5041092;28;7211;-82
2022/07/16 05:44:32;;;;;;;;;;;;;;;;;;5014771;28;7061;-86
2022/07/16 05:46:58;;;;;;;;;;;;;;;;;;5032261;28;7035;-83
2022/07/16 05:49:23;;;;;;;;;;;;;;;;;;5025537;28;8300;-86
2022/07/16 05:51:49;;;;;;;;;;;;;;;;;;5028028;28;7148;-86
2022/07/16 05:54:15;;;;;;;;;;;;;;;;;;5022473;28;8349;-86
2022/07/16 05:56:40;;;;;;;;;;;;;;;;;;5022450;28;8755;-85
2022/07/16 05:59:06;;;;;;;;;;;;;;;;;;5025314;28;7236;-85
2022/07/16 06:01:31;;;;;;;;;;;;;;;;;;5019269;28;8486;-85
2022/07/16 06:03:57;;;;;;;;;;;;;;;;;;5025322;28;8551;-83
2022/07/16 06:06:23;;;;;;;;;;;;;;;;;;5023671;28;8905;-83
2022/07/16 06:08:48;;;;;;;;;;;;;;;;;;5015583;28;8841;-84
2022/07/16 06:11:14;;;;;;;;;;;;;;;;;;5014821;28;7157;-85
2022/07/16 06:13:39;;;;;;;;;;;;;;;;;;5014641;28;8941;-85
2022/07/16 06:16:07;;;;;;;;;;;;;;;;;;5014408;28;7179;-85
2022/07/16 06:18:33;;;;;;;;;;;;;;;;;;5014669;28;7385;-85
2022/07/16 06:20:58;;;;;;;;;;;;;;;;;;5014493;28;8684;-84
2022/07/16 06:23:24;;;;;;;;;;;;;;;;;;5014663;28;8287;-85
2022/07/16 06:25:49;;;;;;;;;;;;;;;;;;5013939;28;7332;-85
2022/07/16 06:28:15;;;;;;;;;;;;;;;;;;5014363;28;8369;-86
2022/07/16 06:30:40;;;;;;;;;;;;;;;;;;5014169;28;8685;-84
2022/07/16 06:33:06;;;;;;;;;;;;;;;;;;5014470;28;8730;-84
2022/07/16 06:35:31;;;;;;;;;;;;;;;;;;5014461;28;7014;-84
2022/07/16 06:37:57;;;;;;;;;;;;;;;;;;5013512;28;6822;-84
2022/07/16 06:40:22;;;;;;;;;;;;;;;;;;5014562;28;7321;-84
2022/07/16 06:42:48;;;;;;;;;;;;;;;;;;5014301;28;7008;-84
2022/07/16 06:45:13;;;;;;;;;;;;;;;;;;5014097;28;8389;-85
2022/07/16 06:47:39;;;;;;;;;;;;;;;;;;5013037;28;7125;-85
2022/07/16 06:50:04;;;;;;;;;;;;;;;;;;5014336;28;8439;-85
2022/07/16 06:52:30;;;;;;;;;;;;;;;;;;5014481;28;7016;-84
2022/07/16 06:54:55;;;;;;;;;;;;;;;;;;5013932;28;7170;-84
2022/07/16 06:57:22;;;;;;;;;;;;;;;;;;5013017;28;7141;-85
2022/07/16 06:59:48;;;;;;;;;;;;;;;;;;5013539;28;7049;-85
2022/07/16 07:02:16;;;;;;;;;;;;;;;;;;5013981;28;8718;-84
2022/07/16 07:04:42;;;;;;;;;;;;;;;;;;5013570;28;8506;-84
2022/07/16 07:07:07;;;;;;;;;;;;;;;;;;5012992;28;7158;-85
2022/07/16 07:09:32;;;;;;;;;;;;;;;;;;5013658;28;7192;-85
2022/07/16 07:11:58;;;;;;;;;;;;;;;;;;5029898;28;7262;-84
2022/07/16 07:14:23;;;;;;;;;;;;;;;;;;5013610;28;7203;-86
2022/07/16 07:16:50;;;;;;;;;;;;;;;;;;5012339;28;7232;-85
2022/07/16 07:19:15;;;;;;;;;;;;;;;;;;5013309;28;7166;-84
2022/07/16 07:21:41;;;;;;;;;;;;;;;;;;5013250;28;8489;-83
2022/07/16 07:24:06;;;;;;;;;;;;;;;;;;5016469;28;8730;-85
2022/07/16 07:26:32;;;;;;;;;;;;;;;;;;5022102;28;7193;-84
2022/07/16 07:28:57;;;;;;;;;;;;;;;;;;5021144;28;8748;-84
2022/07/16 07:31:22;;;;;;;;;;;;;;;;;;5029870;28;7253;-84
2022/07/16 07:33:48;;;;;;;;;;;;;;;;;;5045750;28;7007;-85
2022/07/16 07:36:13;;;;;;;;;;;;;;;;;;5032456;28;8355;-86
2022/07/16 07:38:39;;;;;;;;;;;;;;;;;;5047571;28;8428;-86
2022/07/16 07:41:05;;;;;;;;;;;;;;;;;;5048597;28;9295;-86
2022/07/16 07:43:31;;;;;;;;;;;;;;;;;;5048090;28;8504;-84
2022/07/16 07:45:57;;;;;;;;;;;;;;;;;;5049244;28;7153;-84
2022/07/16 07:48:22;;;;;;;;;;;;;;;;;;5048768;28;6970;-85
2022/07/16 07:50:48;;;;;;;;;;;;;;;;;;5048543;28;8418;-84
2022/07/16 07:53:13;;;;;;;;;;;;;;;;;;5048659;28;8622;-80
2022/07/16 07:55:39;;;;;;;;;;;;;;;;;;5050531;28;7043;-83
2022/07/16 07:58:05;;;;;;;;;;;;;;;;;;5045672;28;8435;-81
2022/07/16 08:00:31;;;;;;;;;;;;;;;;;;5018109;28;7051;-84
2022/07/16 08:02:56;;;;;;;;;;;;;;;;;;5015227;28;8676;-84
2022/07/16 08:05:22;;;;;;;;;;;;;;;;;;5023963;28;7177;-83
2022/07/16 08:07:48;;;;;;;;;;;;;;;;;;5020716;28;8906;-85
2022/07/16 08:10:14;;;;;;;;;;;;;;;;;;5022978;28;8412;-86
2022/07/16 08:12:41;;;;;;;;;;;;;;;;;;5017338;28;8794;-83
2022/07/16 08:15:07;;;;;;;;;;;;;;;;;;5011999;28;8320;-83
2022/07/16 08:17:33;;;;;;;;;;;;;;;;;;5012479;28;7055;-85
2022/07/16 08:19:58;;;;;;;;;;;;;;;;;;5011588;28;7255;-83
2022/07/16 08:22:24;;;;;;;;;;;;;;;;;;5011515;28;8711;-86
2022/07/16 08:27:33;;;;;;;;;;;;;;;;;;5013019;28;7036;-85
2022/07/16 08:29:59;;;;;;;;;;;;;;;;;;5011993;28;7158;-84
2022/07/16 08:32:24;;;;;;;;;;;;;;;;;;5013031;28;7344;-86
2022/07/16 08:34:50;;;;;;;;;;;;;;;;;;5017739;28;7185;-86
2022/07/16 08:37:29;;;;;;;;;;;;;;;;;;5035328;28;7356;-87
2022/07/16 08:39:55;;;;;;;;;;;;;;;;;;5053604;28;8407;-88
2022/07/16 08:42:22;;;;;;;;;;;;;;;;;;5051500;28;8596;-86
2022/07/16 08:44:49;;;;;;;;;;;;;;;;;;5052300;28;7125;-88
2022/07/16 08:47:14;;;;;;;;;;;;;;;;;;5053817;28;7044;-88
2022/07/16 08:49:43;;;;;;;;;;;;;;;;;;5052686;28;8345;-88
2022/07/16 08:52:09;;;;;;;;;;;;;;;;;;5052745;28;7127;-90
2022/07/16 08:54:36;;;;;;;;;;;;;;;;;;5056009;28;7118;-90
2022/07/16 08:57:02;;;;;;;;;;;;;;;;;;5023015;28;7175;-91
2022/07/16 08:59:28;;;;;;;;;;;;;;;;;;5019840;28;8999;-89
2022/07/16 09:01:54;;;;;;;;;;;;;;;;;;5020130;28;7042;-90
2022/07/16 09:04:20;;;;;;;;;;;;;;;;;;5019839;28;7564;-89
2022/07/16 09:06:46;;;;;;;;;;;;;;;;;;5019368;28;7050;-92
2022/07/16 09:09:12;;;;;;;;;;;;;;;;;;5019550;28;7082;-92
2022/07/16 09:11:39;;;;;;;;;;;;;;;;;;5017994;28;8476;-92
2022/07/16 09:14:06;;;;;;;;;;;;;;;;;;5018686;28;7078;-94
2022/07/16 09:16:34;;;;;;;;;;;;;;;;;;5019734;28;7270;-91
2022/07/16 09:19:22;;;;;;;;;;;;;;;;;;5018697;28;7172;-91
2022/07/16 09:22:17;;;;;;;;;;;;;;;;;;5016538;28;7109;-90
2022/07/16 09:24:51;;;;;;;;;;;;;;;;;;5006111;28;7138;-90
2022/07/16 09:27:18;;;;;;;;;;;;;;;;;;5019732;28;8857;-90
2022/07/16 09:29:49;;;;;;;;;;;;;;;;;;5052420;28;8447;-90
2022/07/16 09:32:28;;;;;;;;;;;;;;;;;;5052681;28;8376;-90
2022/07/16 09:35:01;;;;;;;;;;;;;;;;;;5052780;28;8459;-91
2022/07/16 09:37:43;;;;;;;;;;;;;;;;;;5051850;28;7442;-91
2022/07/16 09:40:09;;;;;;;;;;;;;;;;;;5051956;28;7472;-90
2022/07/16 09:42:38;;;;;;;;;;;;;;;;;;5051988;28;8640;-90
2022/07/16 09:45:05;;;;;;;;;;;;;;;;;;5052583;28;7190;-90
2022/07/16 09:47:31;;;;;;;;;;;;;;;;;;5052465;28;7191;-89
2022/07/16 09:49:57;;;;;;;;;;;;;;;;;;5052122;28;7180;-90
2022/07/16 09:52:37;;;;;;;;;;;;;;;;;;5052108;28;7430;-91
2022/07/16 09:55:03;;;;;;;;;;;;;;;;;;5052016;28;8784;-92
2022/07/16 09:57:30;;;;;;;;;;;;;;;;;;5052348;28;8627;-88
2022/07/16 09:59:56;;;;;;;;;;;;;;;;;;5055189;28;8491;-89
2022/07/16 10:02:28;;;;;;;;;;;;;;;;;;5053085;28;7254;-88
2022/07/16 10:04:53;;;;;;;;;;;;;;;;;;5053943;28;7097;-91
2022/07/16 10:07:19;;;;;;;;;;;;;;;;;;5053061;28;8623;-91
2022/07/16 10:09:46;;;;;;;;;;;;;;;;;;5052401;28;7260;-79
2022/07/16 10:12:17;;;;;;;;;;;;;;;;;;5052258;28;7113;-78
2022/07/16 10:14:45;;;;;;;;;;;;;;;;;;5052077;28;7273;-90
2022/07/16 10:17:21;;;;;;;;;;;;;;;;;;5051710;28;8757;-90
2022/07/16 10:20:00;;;;;;;;;;;;;;;;;;5051755;28;8443;-90
2022/07/16 10:22:30;;;;;;;;;;;;;;;;;;5051081;28;6862;-89
2022/07/16 10:24:56;;;;;;;;;;;;;;;;;;5051555;28;8472;-88
2022/07/16 10:27:34;;;;;;;;;;;;;;;;;;5051575;28;8509;-89
2022/07/16 10:30:08;;;;;;;;;;;;;;;;;;5051742;28;7171;-88
2022/07/16 10:32:54;;;;;;;;;;;;;;;;;;5051650;28;8733;-89
2022/07/16 10:35:39;;;;;;;;;;;;;;;;;;5031017;28;8600;-88
2022/07/16 10:38:08;;;;;;;;;;;;;;;;;;5050795;28;8848;-90
2022/07/16 10:40:36;;;;;;;;;;;;;;;;;;5031066;28;8355;-88
2022/07/16 10:43:21;;;;;;;;;;;;;;;;;;5032501;28;7212;-88
2022/07/16 10:45:50;;;;;;;;;;;;;;;;;;5033614;28;7142;-89
2022/07/16 10:48:16;;;;;;;;;;;;;;;;;;5029792;28;7186;-86
2022/07/16 10:51:02;;;;;;;;;;;;;;;;;;5035106;28;8428;-80
2022/07/16 10:53:27;;;;;;;;;;;;;;;;;;5032702;28;8417;-79
2022/07/16 10:55:52;;;;;;;;;;;;;;;;;;5034269;28;8723;-78
2022/07/16 10:58:22;;;;;;;;;;;;;;;;;;5034320;28;8523;-90
2022/07/16 11:00:48;;;;;;;;;;;;;;;;;;5034300;28;8341;-90
2022/07/16 11:03:14;;;;;;;;;;;;;;;;;;5034232;28;8456;-90
2022/07/16 11:05:41;;;;;;;;;;;;;;;;;;5033599;28;8496;-89
2022/07/16 11:08:11;;;;;;;;;;;;;;;;;;5033870;28;8720;-88
2022/07/16 11:10:38;;;;;;;;;;;;;;;;;;5031707;28;7061;-89
2022/07/16 11:13:09;;;;;;;;;;;;;;;;;;5033291;28;8483;-88
2022/07/16 11:15:35;;;;;;;;;;;;;;;;;;5033246;28;8448;-89
2022/07/16 11:18:00;;;;;;;;;;;;;;;;;;5033445;28;8489;-89
2022/07/16 11:20:35;;;;;;;;;;;;;;;;;;5032153;28;8712;-89
2022/07/16 11:23:06;;;;;;;;;;;;;;;;;;5032389;28;7208;-88
2022/07/16 11:25:31;;;;;;;;;;;;;;;;;;5033403;28;8771;-89
2022/07/16 11:28:00;;;;;;;;;;;;;;;;;;5032914;28;8858;-89
2022/07/16 11:30:26;;;;;;;;;;;;;;;;;;5032413;28;8669;-89
2022/07/16 11:32:51;;;;;;;;;;;;;;;;;;5032403;28;7054;-88
2022/07/16 11:35:17;;;;;;;;;;;;;;;;;;5031788;28;8308;-89
2022/07/16 11:37:48;;;;;;;;;;;;;;;;;;5032387;28;8370;-89
2022/07/16 11:40:14;;;;;;;;;;;;;;;;;;5032373;28;7158;-87
2022/07/16 11:42:40;;;;;;;;;;;;;;;;;;5032371;28;8416;-84
2022/07/16 11:45:06;;;;;;;;;;;;;;;;;;5032027;28;6837;-83
2022/07/16 11:47:32;;;;;;;;;;;;;;;;;;5032905;28;8733;-83
2022/07/16 11:49:58;;;;;;;;;;;;;;;;;;5022814;28;7269;-87
2022/07/16 11:52:24;;;;;;;;;;;;;;;;;;5029257;28;8473;-83
2022/07/16 11:54:51;;;;;;;;;;;;;;;;;;5030164;28;8769;-83
2022/07/16 11:57:18;;;;;;;;;;;;;;;;;;5030907;28;9043;-83
2022/07/16 11:59:54;;;;;;;;;;;;;;;;;;5030578;28;8452;-84
2022/07/16 12:02:22;;;;;;;;;;;;;;;;;;5031493;28;8652;-85
2022/07/16 12:04:50;;;;;;;;;;;;;;;;;;5030328;28;8504;-84
2022/07/16 12:07:17;;;;;;;;;;;;;;;;;;5034249;28;8838;-82
2022/07/16 12:09:44;;;;;;;;;;;;;;;;;;5035993;28;7455;-83
2022/07/16 12:12:15;;;;;;;;;;;;;;;;;;5036540;28;7483;-83
2022/07/16 12:14:48;;;;;;;;;;;;;;;;;;5036211;28;7061;-83
2022/07/16 12:17:19;;;;;;;;;;;;;;;;;;5036822;28;7286;-83
2022/07/16 12:20:00;;;;;;;;;;;;;;;;;;5036041;28;7204;-83
2022/07/16 12:23:02;;;;;;;;;;;;;;;;;;5036562;28;7077;-86
2022/07/16 12:25:27;;;;;;;;;;;;;;;;;;5015746;28;7188;-87
2022/07/16 12:27:53;;;;;;;;;;;;;;;;;;5044980;28;8299;-87
2022/07/16 12:30:18;;;;;;;;;;;;;;;;;;5035432;28;7246;-87
2022/07/16 12:32:48;;;;;;;;;;;;;;;;;;5036258;28;8508;-87
2022/07/16 12:35:32;;;;;;;;;;;;;;;;;;5035736;28;7206;-87
2022/07/16 12:37:58;;;;;;;;;;;;;;;;;;5036019;28;8346;-87
2022/07/16 12:40:23;;;;;;;;;;;;;;;;;;5035044;28;6846;-88
2022/07/16 12:42:48;;;;;;;;;;;;;;;;;;5030286;28;8429;-88
2022/07/16 12:45:14;;;;;;;;;;;;;;;;;;5015644;28;8421;-87
2022/07/16 12:47:39;;;;;;;;;;;;;;;;;;5016852;28;8460;-88
2022/07/16 12:50:05;;;;;;;;;;;;;;;;;;5015771;28;7176;-88
2022/07/16 12:52:31;;;;;;;;;;;;;;;;;;5016130;28;7136;-89
2022/07/16 13:00:24;;;;;;;;;;;;;;;;;;5016725;28;6839;-87
2022/07/16 13:02:50;;;;;;;;;;;;;;;;;;5015889;28;8386;-87
2022/07/16 13:05:16;;;;;;;;;;;;;;;;;;5018200;28;8767;-87
2022/07/16 13:07:41;;;;;;;;;;;;;;;;;;5042531;28;8522;-87
2022/07/16 13:10:09;;;;;;;;;;;;;;;;;;5039133;28;8465;-87
2022/07/16 13:12:35;;;;;;;;;;;;;;;;;;5042248;28;7470;-87
2022/07/16 13:15:01;;;;;;;;;;;;;;;;;;5029594;28;7300;-86
2022/07/16 13:17:26;;;;;;;;;;;;;;;;;;5034120;28;8529;-88
2022/07/16 13:19:52;;;;;;;;;;;;;;;;;;5033393;28;9102;-88
2022/07/16 13:22:17;;;;;;;;;;;;;;;;;;5034144;28;8524;-88
2022/07/16 13:24:42;;;;;;;;;;;;;;;;;;5034043;28;8770;-89
2022/07/16 13:27:08;;;;;;;;;;;;;;;;;;5034734;28;8487;-83
2022/07/16 13:29:34;;;;;;;;;;;;;;;;;;5033768;28;7280;-89
2022/07/16 13:32:00;;;;;;;;;;;;;;;;;;5034390;28;7089;-89
2022/07/16 13:34:26;;;;;;;;;;;;;;;;;;5033610;28;8560;-86
2022/07/16 13:36:51;;;;;;;;;;;;;;;;;;5034609;28;7551;-86
2022/07/16 13:39:17;;;;;;;;;;;;;;;;;;5033402;28;7232;-76
2022/07/16 13:41:42;;;;;;;;;;;;;;;;;;5035120;28;8544;-78
2022/07/16 13:44:08;;;;;;;;;;;;;;;;;;5034518;28;8771;-78
2022/07/16 13:46:33;;;;;;;;;;;;;;;;;;5034002;28;8618;-79
2022/07/16 13:48:59;;;;;;;;;;;;;;;;;;5033582;28;8709;-79
2022/07/16 13:51:24;;;;;;;;;;;;;;;;;;5031064;28;8346;-80
2022/07/16 13:53:50;;;;;;;;;;;;;;;;;;5028285;28;8778;-88
2022/07/16 13:56:15;;;;;;;;;;;;;;;;;;5056447;28;8653;-89
2022/07/16 13:58:41;;;;;;;;;;;;;;;;;;5035093;28;9055;-91
2022/07/16 14:01:07;;;;;;;;;;;;;;;;;;5035519;28;7169;-88
2022/07/16 14:03:32;;;;;;;;;;;;;;;;;;5029499;28;7121;-89
2022/07/16 14:05:59;;;;;;;;;;;;;;;;;;5032667;28;8792;-88
2022/07/16 14:08:25;;;;;;;;;;;;;;;;;;5032345;28;7716;-89
2022/07/16 14:10:51;;;;;;;;;;;;;;;;;;5032536;28;7249;-89
2022/07/16 14:13:16;;;;;;;;;;;;;;;;;;5032218;28;8515;-88
2022/07/16 14:15:42;;;;;;;;;;;;;;;;;;5031828;28;7002;-88
2022/07/16 14:18:09;;;;;;;;;;;;;;;;;;5048980;28;8799;-88
2022/07/16 14:20:37;;;;;;;;;;;;;;;;;;5049125;28;7212;-89
2022/07/16 14:23:03;;;;;;;;;;;;;;;;;;5049032;28;7104;-89
2022/07/16 14:25:29;;;;;;;;;;;;;;;;;;5048130;28;7098;-80
2022/07/16 14:27:54;;;;;;;;;;;;;;;;;;5049649;28;7215;-77
2022/07/16 14:30:20;;;;;;;;;;;;;;;;;;5048144;28;6878;-76
2022/07/16 14:32:46;;;;;;;;;;;;;;;;;;5049390;28;7029;-85
2022/07/16 14:35:13;;;;;;;;;;;;;;;;;;5049899;28;7187;-90
2022/07/16 14:37:40;;;;;;;;;;;;;;;;;;5048115;28;7447;-88
2022/07/16 14:40:07;;;;;;;;;;;;;;;;;;5048924;28;8908;-89
2022/07/16 14:42:35;;;;;;;;;;;;;;;;;;5048913;28;8516;-89
2022/07/16 14:45:01;;;;;;;;;;;;;;;;;;5048688;28;8453;-78
2022/07/16 14:47:27;;;;;;;;;;;;;;;;;;5047833;28;7066;-77
2022/07/16 14:49:52;;;;;;;;;;;;;;;;;;5048118;28;8415;-79
2022/07/16 14:52:18;;;;;;;;;;;;;;;;;;5048223;28;8801;-77
2022/07/16 14:54:43;;;;;;;;;;;;;;;;;;5047977;28;8782;-79
2022/07/16 14:57:09;;;;;;;;;;;;;;;;;;5047006;28;8458;-88
2022/07/16 14:59:34;;;;;;;;;;;;;;;;;;5048304;28;8467;-89
2022/07/16 15:02:00;;;;;;;;;;;;;;;;;;5044457;28;7280;-86
2022/07/16 15:04:25;;;;;;;;;;;;;;;;;;5028350;28;7023;-87
2022/07/16 15:06:51;;;;;;;;;;;;;;;;;;5027151;28;7064;-88
2022/07/16 15:09:16;;;;;;;;;;;;;;;;;;5027680;28;8342;-87
2022/07/16 15:11:42;;;;;;;;;;;;;;;;;;5028157;28;7280;-87
2022/07/16 15:14:07;;;;;;;;;;;;;;;;;;5028231;28;8755;-90
2022/07/16 15:16:33;;;;;;;;;;;;;;;;;;5027992;28;7082;-88
2022/07/16 15:18:59;;;;;;;;;;;;;;;;;;5027416;28;8754;-87
2022/07/16 15:21:25;;;;;;;;;;;;;;;;;;5027955;28;8307;-90
2022/07/16 15:23:50;;;;;;;;;;;;;;;;;;5027677;28;7176;-90
2022/07/16 15:26:16;;;;;;;;;;;;;;;;;;5027548;28;9011;-89
2022/07/16 15:28:42;;;;;;;;;;;;;;;;;;5027479;28;7219;-88
2022/07/16 15:31:09;;;;;;;;;;;;;;;;;;5028351;28;7272;-89
2022/07/16 15:33:37;;;;;;;;;;;;;;;;;;5028378;28;8276;-86
2022/07/16 15:36:04;;;;;;;;;;;;;;;;;;5027436;28;8369;-89
2022/07/16 15:38:29;;;;;;;;;;;;;;;;;;5027741;28;8458;-89
2022/07/16 15:40:54;;;;;;;;;;;;;;;;;;5027954;28;8437;-89
2022/07/16 15:43:20;;;;;;;;;;;;;;;;;;5027985;28;8746;-89
2022/07/16 15:45:46;;;;;;;;;;;;;;;;;;5011134;28;7006;-88
2022/07/16 15:48:11;;;;;;;;;;;;;;;;;;5027379;28;8424;-89
2022/07/16 15:50:37;;;;;;;;;;;;;;;;;;5027542;28;8536;-87
2022/07/16 15:53:02;;;;;;;;;;;;;;;;;;5028115;28;8716;-89
2022/07/16 15:55:27;;;;;;;;;;;;;;;;;;5028245;28;8774;-91
2022/07/16 15:57:54;;;;;;;;;;;;;;;;;;5015720;28;8364;-89
2022/07/16 16:00:20;;;;;;;;;;;;;;;;;;5027350;28;7262;-88
2022/07/16 16:02:48;;;;;;;;;;;;;;;;;;5016783;28;8649;-89
2022/07/16 16:05:14;;;;;;;;;;;;;;;;;;5049091;28;8674;-90
2022/07/16 16:07:40;;;;;;;;;;;;;;;;;;5049678;28;8435;-89
2022/07/16 16:10:06;;;;;;;;;;;;;;;;;;5047688;28;8384;-89
2022/07/16 16:12:31;;;;;;;;;;;;;;;;;;5047215;28;8592;-90
2022/07/16 16:14:57;;;;;;;;;;;;;;;;;;5047480;28;8317;-89
2022/07/16 16:17:23;;;;;;;;;;;;;;;;;;5047196;28;8464;-89
2022/07/16 16:19:48;;;;;;;;;;;;;;;;;;5047731;28;8479;-88
2022/07/16 16:22:14;;;;;;;;;;;;;;;;;;5049348;28;8649;-90
2022/07/16 16:24:39;;;;;;;;;;;;;;;;;;5047627;28;8538;-88
2022/07/16 16:27:05;;;;;;;;;;;;;;;;;;5046647;28;9233;-88
2022/07/16 16:29:30;;;;;;;;;;;;;;;;;;5047401;28;7239;-88
2022/07/16 16:31:56;;;;;;;;;;;;;;;;;;5048242;28;7125;-89
2022/07/16 16:34:21;;;;;;;;;;;;;;;;;;5047503;28;8594;-89
2022/07/16 16:36:46;;;;;;;;;;;;;;;;;;5034935;28;7127;-84
2022/07/16 16:39:12;;;;;;;;;;;;;;;;;;5013499;28;8717;-89
2022/07/16 16:41:37;;;;;;;;;;;;;;;;;;5013299;28;8431;-87
2022/07/16 16:44:03;;;;;;;;;;;;;;;;;;5013447;28;7014;-89
2022/07/16 16:46:29;;;;;;;;;;;;;;;;;;5011840;28;8438;-86
2022/07/16 16:48:54;;;;;;;;;;;;;;;;;;5013242;28;8402;-86
2022/07/16 16:51:21;;;;;;;;;;;;;;;;;;5013609;28;7168;-87
2022/07/16 16:53:47;;;;;;;;;;;;;;;;;;5015327;28;7025;-80
2022/07/16 16:56:13;;;;;;;;;;;;;;;;;;5017158;28;8501;-93
2022/07/16 16:58:38;;;;;;;;;;;;;;;;;;5016305;28;9081;-90
2022/07/16 17:01:05;;;;;;;;;;;;;;;;;;5016742;28;7455;-93
2022/07/16 17:03:32;;;;;;;;;;;;;;;;;;5017215;28;7213;-93
2022/07/16 17:05:58;;;;;;;;;;;;;;;;;;5017188;28;7145;-94
2022/07/16 17:08:24;;;;;;;;;;;;;;;;;;5017128;28;7062;-93
2022/07/16 17:10:50;;;;;;;;;;;;;;;;;;5016412;28;7121;-94
2022/07/16 17:13:16;;;;;;;;;;;;;;;;;;5016390;28;7188;-92
2022/07/16 17:15:42;;;;;;;;;;;;;;;;;;5016301;28;8794;-92
2022/07/16 17:18:08;;;;;;;;;;;;;;;;;;5016167;28;8450;-91
2022/07/16 17:20:33;;;;;;;;;;;;;;;;;;5016115;28;8677;-91
2022/07/16 17:22:59;;;;;;;;;;;;;;;;;;5016564;28;8404;-91
2022/07/16 17:25:24;;;;;;;;;;;;;;;;;;5016043;28;8579;-93
2022/07/16 17:27:50;;;;;;;;;;;;;;;;;;5016387;28;7410;-91
2022/07/16 17:30:15;;;;;;;;;;;;;;;;;;5016525;28;8482;-92
2022/07/16 17:32:41;;;;;;;;;;;;;;;;;;5016201;28;8308;-92
2022/07/16 17:35:07;;;;;;;;;;;;;;;;;;5016160;28;8704;-93
2022/07/16 17:37:32;;;;;;;;;;;;;;;;;;5015831;28;8658;-93
2022/07/16 17:39:58;;;;;;;;;;;;;;;;;;5016151;28;8838;-92
2022/07/16 17:42:24;;;;;;;;;;;;;;;;;;5015880;28;7234;-91
2022/07/16 17:44:49;;;;;;;;;;;;;;;;;;5015822;28;8949;-92
2022/07/16 17:47:15;;;;;;;;;;;;;;;;;;5016272;28;8579;-93
2022/07/16 17:49:53;;;;;;;;;;;;;;;;;;5016436;28;8450;-92
2022/07/16 17:52:30;;;;;;;;;;;;;;;;;;5016087;28;7029;-91
2022/07/16 17:54:57;;;;;;;;;;;;;;;;;;5016252;28;8341;-92
2022/07/16 17:57:23;;;;;;;;;;;;;;;;;;5016121;28;7155;-92
2022/07/16 17:59:49;;;;;;;;;;;;;;;;;;5015748;28;7412;-92
2022/07/16 18:02:15;;;;;;;;;;;;;;;;;;5015986;28;9417;-92
2022/07/16 18:04:42;;;;;;;;;;;;;;;;;;5015470;28;8465;-92
2022/07/16 18:07:08;;;;;;;;;;;;;;;;;;5015523;28;8514;-91
2022/07/16 18:09:35;;;;;;;;;;;;;;;;;;5015654;28;8461;-91
2022/07/16 18:12:02;;;;;;;;;;;;;;;;;;5015581;28;8491;-91
2022/07/16 18:14:28;;;;;;;;;;;;;;;;;;5015512;28;8456;-91